sensor_id;sensor_type;location;lat;lon;timestamp;P1;durP1;ratioP1;P2;durP2;ratioP2
76039;SDS011;64736;50.462;4.850;2023-05-07T00:01:50;8.52;;;5.30;;
76039;SDS011;64736;50.462;4.850;2023-05-07T00:04:15;8.35;;;5.22;;
76039;SDS011;64736;50.462;4.850;2023-05-07T00:06:41;9.43;;;5.47;;
76039;SDS011;64736;50.462;4.850;2023-05-07T00:09:07;10.18;;;5.25;;
76039;SDS011;64736;50.462;4.850;2023-05-07T00:11:33;9.18;;;5.10;;
76039;SDS011;64736;50.462;4.850;2023-05-07T00:14:00;8.77;;;5.32;;
76039;SDS011;64736;50.462;4.850;2023-05-07T00:16:25;8.57;;;5.60;;
76039;SDS011;64736;50.462;4.850;2023-05-07T00:18:52;7.50;;;4.82;;
76039;SDS011;64736;50.462;4.850;2023-05-07T00:21:18;10.30;;;5.38;;
76039;SDS011;64736;50.462;4.850;2023-05-07T00:23:43;7.82;;;4.82;;
76039;SDS011;64736;50.462;4.850;2023-05-07T00:26:09;8.82;;;5.60;;
76039;SDS011;64736;50.462;4.850;2023-05-07T00:28:35;9.23;;;5.80;;
76039;SDS011;64736;50.462;4.850;2023-05-07T00:31:01;10.23;;;6.05;;
76039;SDS011;64736;50.462;4.850;2023-05-07T00:33:26;8.80;;;5.28;;
76039;SDS011;64736;50.462;4.850;2023-05-07T00:35:52;7.40;;;5.78;;
76039;SDS011;64736;50.462;4.850;2023-05-07T00:38:19;9.60;;;5.90;;
76039;SDS011;64736;50.462;4.850;2023-05-07T00:40:45;8.23;;;5.85;;
76039;SDS011;64736;50.462;4.850;2023-05-07T00:43:11;11.55;;;5.68;;
76039;SDS011;64736;50.462;4.850;2023-05-07T00:45:38;10.13;;;5.70;;
76039;SDS011;64736;50.462;4.850;2023-05-07T00:48:04;8.07;;;5.00;;
76039;SDS011;64736;50.462;4.850;2023-05-07T00:50:30;12.70;;;6.82;;
76039;SDS011;64736;50.462;4.850;2023-05-07T00:52:57;9.07;;;5.85;;
76039;SDS011;64736;50.462;4.850;2023-05-07T00:55:24;9.50;;;5.97;;
76039;SDS011;64736;50.462;4.850;2023-05-07T00:57:50;9.73;;;5.75;;
76039;SDS011;64736;50.462;4.850;2023-05-07T01:00:17;10.40;;;5.70;;
76039;SDS011;64736;50.462;4.850;2023-05-07T01:02:44;10.23;;;6.75;;
76039;SDS011;64736;50.462;4.850;2023-05-07T01:05:14;8.20;;;5.47;;
76039;SDS011;64736;50.462;4.850;2023-05-07T01:07:42;7.82;;;5.32;;
76039;SDS011;64736;50.462;4.850;2023-05-07T01:10:09;11.32;;;5.35;;
76039;SDS011;64736;50.462;4.850;2023-05-07T01:12:36;9.18;;;6.57;;
76039;SDS011;64736;50.462;4.850;2023-05-07T01:15:03;9.52;;;5.68;;
76039;SDS011;64736;50.462;4.850;2023-05-07T01:17:34;11.55;;;5.80;;
76039;SDS011;64736;50.462;4.850;2023-05-07T01:20:05;7.88;;;5.18;;
76039;SDS011;64736;50.462;4.850;2023-05-07T01:22:36;9.90;;;5.88;;
76039;SDS011;64736;50.462;4.850;2023-05-07T01:25:03;8.90;;;5.63;;
76039;SDS011;64736;50.462;4.850;2023-05-07T01:27:30;8.82;;;5.57;;
76039;SDS011;64736;50.462;4.850;2023-05-07T01:29:56;10.85;;;6.20;;
76039;SDS011;64736;50.462;4.850;2023-05-07T01:32:32;9.55;;;6.43;;
76039;SDS011;64736;50.462;4.850;2023-05-07T01:35:12;9.20;;;5.80;;
76039;SDS011;64736;50.462;4.850;2023-05-07T01:37:50;8.57;;;5.45;;
76039;SDS011;64736;50.462;4.850;2023-05-07T01:40:15;7.68;;;5.20;;
76039;SDS011;64736;50.462;4.850;2023-05-07T01:42:42;9.10;;;5.22;;
76039;SDS011;64736;50.462;4.850;2023-05-07T01:45:09;8.65;;;5.72;;
76039;SDS011;64736;50.462;4.850;2023-05-07T01:47:36;9.13;;;5.97;;
76039;SDS011;64736;50.462;4.850;2023-05-07T01:50:03;10.52;;;5.60;;
76039;SDS011;64736;50.462;4.850;2023-05-07T01:52:33;8.05;;;5.32;;
76039;SDS011;64736;50.462;4.850;2023-05-07T01:55:00;7.57;;;5.03;;
76039;SDS011;64736;50.462;4.850;2023-05-07T01:57:26;11.75;;;5.93;;
76039;SDS011;64736;50.462;4.850;2023-05-07T01:59:51;11.18;;;6.57;;
76039;SDS011;64736;50.462;4.850;2023-05-07T02:02:17;10.98;;;5.45;;
76039;SDS011;64736;50.462;4.850;2023-05-07T02:04:43;10.88;;;5.32;;
76039;SDS011;64736;50.462;4.850;2023-05-07T02:07:09;8.23;;;5.50;;
76039;SDS011;64736;50.462;4.850;2023-05-07T02:09:35;9.32;;;5.55;;
76039;SDS011;64736;50.462;4.850;2023-05-07T02:12:01;9.48;;;5.55;;
76039;SDS011;64736;50.462;4.850;2023-05-07T02:14:26;7.30;;;5.88;;
76039;SDS011;64736;50.462;4.850;2023-05-07T02:16:52;9.88;;;6.30;;
76039;SDS011;64736;50.462;4.850;2023-05-07T02:19:18;9.68;;;5.43;;
76039;SDS011;64736;50.462;4.850;2023-05-07T02:21:46;9.25;;;5.63;;
76039;SDS011;64736;50.462;4.850;2023-05-07T02:24:13;10.27;;;6.65;;
76039;SDS011;64736;50.462;4.850;2023-05-07T02:26:41;9.63;;;6.25;;
76039;SDS011;64736;50.462;4.850;2023-05-07T02:29:07;10.50;;;6.53;;
76039;SDS011;64736;50.462;4.850;2023-05-07T02:31:33;11.77;;;7.10;;
76039;SDS011;64736;50.462;4.850;2023-05-07T02:34:02;11.07;;;6.45;;
76039;SDS011;64736;50.462;4.850;2023-05-07T02:36:27;10.40;;;6.72;;
76039;SDS011;64736;50.462;4.850;2023-05-07T02:38:53;12.65;;;6.50;;
76039;SDS011;64736;50.462;4.850;2023-05-07T02:41:20;11.90;;;6.30;;
76039;SDS011;64736;50.462;4.850;2023-05-07T02:43:45;10.00;;;5.28;;
76039;SDS011;64736;50.462;4.850;2023-05-07T02:46:11;9.18;;;5.57;;
76039;SDS011;64736;50.462;4.850;2023-05-07T02:48:37;10.18;;;5.43;;
76039;SDS011;64736;50.462;4.850;2023-05-07T02:51:03;7.65;;;5.28;;
76039;SDS011;64736;50.462;4.850;2023-05-07T02:53:30;7.65;;;5.35;;
76039;SDS011;64736;50.462;4.850;2023-05-07T02:55:57;9.50;;;6.43;;
76039;SDS011;64736;50.462;4.850;2023-05-07T02:58:24;8.77;;;5.28;;
76039;SDS011;64736;50.462;4.850;2023-05-07T03:00:50;7.40;;;5.00;;
76039;SDS011;64736;50.462;4.850;2023-05-07T03:03:16;9.35;;;5.65;;
76039;SDS011;64736;50.462;4.850;2023-05-07T03:05:42;12.15;;;5.80;;
76039;SDS011;64736;50.462;4.850;2023-05-07T03:08:08;9.90;;;5.93;;
76039;SDS011;64736;50.462;4.850;2023-05-07T03:10:35;11.02;;;5.75;;
76039;SDS011;64736;50.462;4.850;2023-05-07T03:13:01;11.13;;;5.70;;
76039;SDS011;64736;50.462;4.850;2023-05-07T03:15:27;10.30;;;6.22;;
76039;SDS011;64736;50.462;4.850;2023-05-07T03:17:52;9.05;;;5.93;;
76039;SDS011;64736;50.462;4.850;2023-05-07T03:20:18;7.97;;;5.55;;
76039;SDS011;64736;50.462;4.850;2023-05-07T03:22:44;8.82;;;5.60;;
76039;SDS011;64736;50.462;4.850;2023-05-07T03:25:10;9.85;;;5.90;;
76039;SDS011;64736;50.462;4.850;2023-05-07T03:27:36;11.00;;;6.35;;
76039;SDS011;64736;50.462;4.850;2023-05-07T03:30:03;10.52;;;5.88;;
76039;SDS011;64736;50.462;4.850;2023-05-07T03:32:29;8.75;;;6.10;;
76039;SDS011;64736;50.462;4.850;2023-05-07T03:34:55;9.45;;;5.70;;
76039;SDS011;64736;50.462;4.850;2023-05-07T03:37:21;9.10;;;5.65;;
76039;SDS011;64736;50.462;4.850;2023-05-07T03:39:47;8.48;;;5.70;;
76039;SDS011;64736;50.462;4.850;2023-05-07T03:42:12;8.68;;;5.28;;
76039;SDS011;64736;50.462;4.850;2023-05-07T03:44:38;12.20;;;6.43;;
76039;SDS011;64736;50.462;4.850;2023-05-07T03:47:04;8.85;;;5.88;;
76039;SDS011;64736;50.462;4.850;2023-05-07T03:49:30;8.50;;;5.40;;
76039;SDS011;64736;50.462;4.850;2023-05-07T03:51:55;9.60;;;5.65;;
76039;SDS011;64736;50.462;4.850;2023-05-07T03:54:21;8.95;;;5.93;;
76039;SDS011;64736;50.462;4.850;2023-05-07T03:56:47;8.98;;;6.05;;
76039;SDS011;64736;50.462;4.850;2023-05-07T03:59:13;10.00;;;5.97;;
76039;SDS011;64736;50.462;4.850;2023-05-07T04:01:39;9.80;;;5.90;;
76039;SDS011;64736;50.462;4.850;2023-05-07T04:04:05;9.90;;;5.80;;
76039;SDS011;64736;50.462;4.850;2023-05-07T04:06:31;10.40;;;6.00;;
76039;SDS011;64736;50.462;4.850;2023-05-07T04:08:56;10.63;;;5.85;;
76039;SDS011;64736;50.462;4.850;2023-05-07T04:11:22;10.93;;;5.80;;
76039;SDS011;64736;50.462;4.850;2023-05-07T04:13:48;8.35;;;5.43;;
76039;SDS011;64736;50.462;4.850;2023-05-07T04:16:14;8.23;;;5.30;;
76039;SDS011;64736;50.462;4.850;2023-05-07T04:18:40;7.78;;;5.25;;
76039;SDS011;64736;50.462;4.850;2023-05-07T04:21:13;10.70;;;5.63;;
76039;SDS011;64736;50.462;4.850;2023-05-07T04:23:40;8.57;;;5.70;;
76039;SDS011;64736;50.462;4.850;2023-05-07T04:26:06;9.27;;;5.80;;
76039;SDS011;64736;50.462;4.850;2023-05-07T04:28:32;9.00;;;5.55;;
76039;SDS011;64736;50.462;4.850;2023-05-07T04:30:58;8.13;;;4.93;;
76039;SDS011;64736;50.462;4.850;2023-05-07T04:33:23;9.15;;;5.50;;
76039;SDS011;64736;50.462;4.850;2023-05-07T04:35:49;10.60;;;5.80;;
76039;SDS011;64736;50.462;4.850;2023-05-07T04:38:15;8.85;;;5.60;;
76039;SDS011;64736;50.462;4.850;2023-05-07T04:40:41;9.70;;;5.47;;
76039;SDS011;64736;50.462;4.850;2023-05-07T04:43:07;7.75;;;5.20;;
76039;SDS011;64736;50.462;4.850;2023-05-07T04:45:34;8.95;;;5.72;;
76039;SDS011;64736;50.462;4.850;2023-05-07T04:48:00;12.57;;;5.82;;
76039;SDS011;64736;50.462;4.850;2023-05-07T04:50:26;9.63;;;6.13;;
76039;SDS011;64736;50.462;4.850;2023-05-07T04:52:52;9.10;;;5.88;;
76039;SDS011;64736;50.462;4.850;2023-05-07T04:55:18;10.63;;;6.03;;
76039;SDS011;64736;50.462;4.850;2023-05-07T04:57:43;9.32;;;5.72;;
76039;SDS011;64736;50.462;4.850;2023-05-07T05:00:10;8.35;;;5.82;;
76039;SDS011;64736;50.462;4.850;2023-05-07T05:02:40;11.93;;;6.43;;
76039;SDS011;64736;50.462;4.850;2023-05-07T05:05:06;8.48;;;6.03;;
76039;SDS011;64736;50.462;4.850;2023-05-07T05:07:32;8.88;;;5.82;;
76039;SDS011;64736;50.462;4.850;2023-05-07T05:09:58;10.95;;;5.88;;
76039;SDS011;64736;50.462;4.850;2023-05-07T05:12:24;10.30;;;6.60;;
76039;SDS011;64736;50.462;4.850;2023-05-07T05:14:50;9.25;;;6.40;;
76039;SDS011;64736;50.462;4.850;2023-05-07T05:17:16;11.07;;;6.93;;
76039;SDS011;64736;50.462;4.850;2023-05-07T05:19:41;9.93;;;6.15;;
76039;SDS011;64736;50.462;4.850;2023-05-07T05:22:07;12.07;;;6.95;;
76039;SDS011;64736;50.462;4.850;2023-05-07T05:24:33;11.00;;;6.40;;
76039;SDS011;64736;50.462;4.850;2023-05-07T05:26:59;9.30;;;6.30;;
76039;SDS011;64736;50.462;4.850;2023-05-07T05:29:26;8.80;;;6.35;;
76039;SDS011;64736;50.462;4.850;2023-05-07T05:31:52;9.80;;;6.10;;
76039;SDS011;64736;50.462;4.850;2023-05-07T05:34:18;10.05;;;6.53;;
76039;SDS011;64736;50.462;4.850;2023-05-07T05:36:44;10.38;;;6.30;;
76039;SDS011;64736;50.462;4.850;2023-05-07T05:39:10;10.50;;;6.28;;
76039;SDS011;64736;50.462;4.850;2023-05-07T05:41:36;8.57;;;5.82;;
76039;SDS011;64736;50.462;4.850;2023-05-07T05:44:02;9.88;;;6.60;;
76039;SDS011;64736;50.462;4.850;2023-05-07T05:46:28;8.60;;;5.47;;
76039;SDS011;64736;50.462;4.850;2023-05-07T05:48:53;9.05;;;6.00;;
76039;SDS011;64736;50.462;4.850;2023-05-07T05:51:20;7.93;;;5.13;;
76039;SDS011;64736;50.462;4.850;2023-05-07T05:53:46;8.63;;;5.32;;
76039;SDS011;64736;50.462;4.850;2023-05-07T05:56:12;9.63;;;5.45;;
76039;SDS011;64736;50.462;4.850;2023-05-07T05:58:38;9.32;;;6.05;;
76039;SDS011;64736;50.462;4.850;2023-05-07T06:01:04;9.05;;;5.72;;
76039;SDS011;64736;50.462;4.850;2023-05-07T06:03:30;8.60;;;5.65;;
76039;SDS011;64736;50.462;4.850;2023-05-07T06:05:57;10.25;;;5.30;;
76039;SDS011;64736;50.462;4.850;2023-05-07T06:08:23;9.85;;;6.40;;
76039;SDS011;64736;50.462;4.850;2023-05-07T06:10:49;9.73;;;5.75;;
76039;SDS011;64736;50.462;4.850;2023-05-07T06:13:15;7.43;;;5.72;;
76039;SDS011;64736;50.462;4.850;2023-05-07T06:15:40;8.50;;;5.50;;
76039;SDS011;64736;50.462;4.850;2023-05-07T06:18:06;8.55;;;5.97;;
76039;SDS011;64736;50.462;4.850;2023-05-07T06:20:32;9.05;;;5.90;;
76039;SDS011;64736;50.462;4.850;2023-05-07T06:22:58;8.30;;;5.05;;
76039;SDS011;64736;50.462;4.850;2023-05-07T06:25:24;7.40;;;5.40;;
76039;SDS011;64736;50.462;4.850;2023-05-07T06:27:49;10.80;;;5.80;;
76039;SDS011;64736;50.462;4.850;2023-05-07T06:30:15;8.27;;;5.13;;
76039;SDS011;64736;50.462;4.850;2023-05-07T06:32:41;9.65;;;5.00;;
76039;SDS011;64736;50.462;4.850;2023-05-07T06:35:07;9.52;;;5.32;;
76039;SDS011;64736;50.462;4.850;2023-05-07T06:37:32;7.75;;;5.35;;
76039;SDS011;64736;50.462;4.850;2023-05-07T06:39:58;9.90;;;5.40;;
76039;SDS011;64736;50.462;4.850;2023-05-07T06:42:24;11.48;;;5.97;;
76039;SDS011;64736;50.462;4.850;2023-05-07T06:44:49;9.15;;;5.43;;
76039;SDS011;64736;50.462;4.850;2023-05-07T06:47:15;8.13;;;5.13;;
76039;SDS011;64736;50.462;4.850;2023-05-07T06:49:41;7.63;;;5.35;;
76039;SDS011;64736;50.462;4.850;2023-05-07T06:52:06;8.32;;;5.25;;
76039;SDS011;64736;50.462;4.850;2023-05-07T06:54:32;8.48;;;5.20;;
76039;SDS011;64736;50.462;4.850;2023-05-07T06:56:58;8.90;;;5.50;;
76039;SDS011;64736;50.462;4.850;2023-05-07T06:59:23;8.73;;;5.32;;
76039;SDS011;64736;50.462;4.850;2023-05-07T07:01:52;11.52;;;5.72;;
76039;SDS011;64736;50.462;4.850;2023-05-07T07:04:18;9.32;;;5.63;;
76039;SDS011;64736;50.462;4.850;2023-05-07T07:06:43;7.65;;;5.20;;
76039;SDS011;64736;50.462;4.850;2023-05-07T07:09:09;9.75;;;6.05;;
76039;SDS011;64736;50.462;4.850;2023-05-07T07:11:34;9.65;;;6.38;;
76039;SDS011;64736;50.462;4.850;2023-05-07T07:14:00;9.38;;;6.15;;
76039;SDS011;64736;50.462;4.850;2023-05-07T07:16:26;9.70;;;5.93;;
76039;SDS011;64736;50.462;4.850;2023-05-07T07:18:51;8.90;;;5.60;;
76039;SDS011;64736;50.462;4.850;2023-05-07T07:21:17;9.43;;;6.32;;
76039;SDS011;64736;50.462;4.850;2023-05-07T07:23:43;9.18;;;5.40;;
76039;SDS011;64736;50.462;4.850;2023-05-07T07:26:09;9.45;;;5.78;;
76039;SDS011;64736;50.462;4.850;2023-05-07T07:28:34;9.32;;;5.28;;
76039;SDS011;64736;50.462;4.850;2023-05-07T07:31:00;10.57;;;6.05;;
76039;SDS011;64736;50.462;4.850;2023-05-07T07:33:26;8.65;;;5.45;;
76039;SDS011;64736;50.462;4.850;2023-05-07T07:35:52;9.48;;;6.15;;
76039;SDS011;64736;50.462;4.850;2023-05-07T07:38:17;9.98;;;5.82;;
76039;SDS011;64736;50.462;4.850;2023-05-07T07:40:43;8.60;;;5.60;;
76039;SDS011;64736;50.462;4.850;2023-05-07T07:43:09;10.88;;;6.80;;
76039;SDS011;64736;50.462;4.850;2023-05-07T07:45:35;11.68;;;6.22;;
76039;SDS011;64736;50.462;4.850;2023-05-07T07:48:01;9.77;;;5.85;;
76039;SDS011;64736;50.462;4.850;2023-05-07T07:50:26;10.43;;;6.35;;
76039;SDS011;64736;50.462;4.850;2023-05-07T07:52:52;11.43;;;6.68;;
76039;SDS011;64736;50.462;4.850;2023-05-07T07:55:19;10.32;;;6.20;;
76039;SDS011;64736;50.462;4.850;2023-05-07T07:57:49;13.77;;;7.07;;
76039;SDS011;64736;50.462;4.850;2023-05-07T08:00:15;10.75;;;6.30;;
76039;SDS011;64736;50.462;4.850;2023-05-07T08:02:41;9.05;;;6.22;;
76039;SDS011;64736;50.462;4.850;2023-05-07T08:05:07;9.55;;;6.13;;
76039;SDS011;64736;50.462;4.850;2023-05-07T08:07:33;10.32;;;6.55;;
76039;SDS011;64736;50.462;4.850;2023-05-07T08:09:59;13.23;;;6.57;;
76039;SDS011;64736;50.462;4.850;2023-05-07T08:12:25;8.70;;;5.63;;
76039;SDS011;64736;50.462;4.850;2023-05-07T08:14:50;10.30;;;6.15;;
76039;SDS011;64736;50.462;4.850;2023-05-07T08:17:16;11.48;;;6.07;;
76039;SDS011;64736;50.462;4.850;2023-05-07T08:19:42;9.43;;;6.50;;
76039;SDS011;64736;50.462;4.850;2023-05-07T08:22:09;11.18;;;7.05;;
76039;SDS011;64736;50.462;4.850;2023-05-07T08:24:36;9.55;;;5.70;;
76039;SDS011;64736;50.462;4.850;2023-05-07T08:27:02;12.85;;;7.38;;
76039;SDS011;64736;50.462;4.850;2023-05-07T08:29:28;9.27;;;6.40;;
76039;SDS011;64736;50.462;4.850;2023-05-07T08:31:53;10.25;;;6.20;;
76039;SDS011;64736;50.462;4.850;2023-05-07T08:34:19;9.85;;;6.45;;
76039;SDS011;64736;50.462;4.850;2023-05-07T08:36:46;11.10;;;6.13;;
76039;SDS011;64736;50.462;4.850;2023-05-07T08:39:14;11.70;;;6.45;;
76039;SDS011;64736;50.462;4.850;2023-05-07T08:41:44;10.82;;;6.10;;
76039;SDS011;64736;50.462;4.850;2023-05-07T08:44:12;11.05;;;6.95;;
76039;SDS011;64736;50.462;4.850;2023-05-07T08:46:41;8.57;;;6.07;;
76039;SDS011;64736;50.462;4.850;2023-05-07T08:49:08;9.38;;;6.07;;
76039;SDS011;64736;50.462;4.850;2023-05-07T08:51:35;8.68;;;5.57;;
76039;SDS011;64736;50.462;4.850;2023-05-07T08:54:01;9.50;;;6.95;;
76039;SDS011;64736;50.462;4.850;2023-05-07T08:56:27;12.00;;;5.95;;
76039;SDS011;64736;50.462;4.850;2023-05-07T08:58:53;9.27;;;6.30;;
76039;SDS011;64736;50.462;4.850;2023-05-07T09:01:24;11.20;;;6.47;;
76039;SDS011;64736;50.462;4.850;2023-05-07T09:03:50;10.63;;;6.90;;
76039;SDS011;64736;50.462;4.850;2023-05-07T09:06:18;11.23;;;6.70;;
76039;SDS011;64736;50.462;4.850;2023-05-07T09:08:50;10.25;;;5.82;;
76039;SDS011;64736;50.462;4.850;2023-05-07T09:11:24;11.02;;;7.03;;
76039;SDS011;64736;50.462;4.850;2023-05-07T09:13:56;10.63;;;6.95;;
76039;SDS011;64736;50.462;4.850;2023-05-07T09:16:30;11.80;;;7.15;;
76039;SDS011;64736;50.462;4.850;2023-05-07T09:18:57;10.15;;;5.90;;
76039;SDS011;64736;50.462;4.850;2023-05-07T09:21:24;12.88;;;7.40;;
76039;SDS011;64736;50.462;4.850;2023-05-07T09:23:50;11.15;;;7.65;;
76039;SDS011;64736;50.462;4.850;2023-05-07T09:26:17;10.25;;;6.75;;
76039;SDS011;64736;50.462;4.850;2023-05-07T09:28:43;11.48;;;7.40;;
76039;SDS011;64736;50.462;4.850;2023-05-07T09:31:10;12.98;;;7.45;;
76039;SDS011;64736;50.462;4.850;2023-05-07T09:33:37;11.98;;;7.88;;
76039;SDS011;64736;50.462;4.850;2023-05-07T09:36:04;11.80;;;7.85;;
76039;SDS011;64736;50.462;4.850;2023-05-07T09:38:31;14.73;;;8.10;;
76039;SDS011;64736;50.462;4.850;2023-05-07T09:41:16;11.77;;;8.02;;
76039;SDS011;64736;50.462;4.850;2023-05-07T09:43:42;11.48;;;7.65;;
76039;SDS011;64736;50.462;4.850;2023-05-07T09:46:14;12.48;;;7.30;;
76039;SDS011;64736;50.462;4.850;2023-05-07T09:48:42;12.30;;;8.27;;
76039;SDS011;64736;50.462;4.850;2023-05-07T09:51:11;11.95;;;7.75;;
76039;SDS011;64736;50.462;4.850;2023-05-07T09:53:53;11.00;;;8.20;;
76039;SDS011;64736;50.462;4.850;2023-05-07T09:56:19;10.30;;;7.60;;
76039;SDS011;64736;50.462;4.850;2023-05-07T09:58:46;10.88;;;8.23;;
76039;SDS011;64736;50.462;4.850;2023-05-07T10:01:12;11.18;;;7.50;;
76039;SDS011;64736;50.462;4.850;2023-05-07T10:03:42;10.20;;;7.50;;
76039;SDS011;64736;50.462;4.850;2023-05-07T10:06:12;11.48;;;9.27;;
76039;SDS011;64736;50.462;4.850;2023-05-07T10:08:39;9.13;;;7.25;;
76039;SDS011;64736;50.462;4.850;2023-05-07T10:11:05;11.80;;;7.72;;
76039;SDS011;64736;50.462;4.850;2023-05-07T10:13:34;9.93;;;7.32;;
76039;SDS011;64736;50.462;4.850;2023-05-07T10:16:03;11.05;;;8.27;;
76039;SDS011;64736;50.462;4.850;2023-05-07T10:18:30;11.40;;;7.03;;
76039;SDS011;64736;50.462;4.850;2023-05-07T10:21:19;10.88;;;7.25;;
76039;SDS011;64736;50.462;4.850;2023-05-07T10:23:51;11.10;;;7.57;;
76039;SDS011;64736;50.462;4.850;2023-05-07T10:26:48;11.85;;;7.72;;
76039;SDS011;64736;50.462;4.850;2023-05-07T10:35:21;9.75;;;7.05;;
76039;SDS011;64736;50.462;4.850;2023-05-07T10:37:51;10.68;;;7.00;;
76039;SDS011;64736;50.462;4.850;2023-05-07T10:40:17;10.60;;;6.75;;
76039;SDS011;64736;50.462;4.850;2023-05-07T10:45:27;8.65;;;6.45;;
76039;SDS011;64736;50.462;4.850;2023-05-07T10:48:07;10.10;;;6.80;;
76039;SDS011;64736;50.462;4.850;2023-05-07T10:50:39;8.38;;;5.28;;
76039;SDS011;64736;50.462;4.850;2023-05-07T10:55:46;9.00;;;6.40;;
76039;SDS011;64736;50.462;4.850;2023-05-07T10:58:26;8.35;;;6.20;;
76039;SDS011;64736;50.462;4.850;2023-05-07T11:00:56;7.88;;;5.32;;
76039;SDS011;64736;50.462;4.850;2023-05-07T11:03:24;7.15;;;5.60;;
76039;SDS011;64736;50.462;4.850;2023-05-07T11:11:18;7.07;;;5.77;;
76039;SDS011;64736;50.462;4.850;2023-05-07T11:13:47;7.88;;;5.30;;
76039;SDS011;64736;50.462;4.850;2023-05-07T11:16:24;6.85;;;4.50;;
76039;SDS011;64736;50.462;4.850;2023-05-07T11:18:53;8.52;;;5.10;;
76039;SDS011;64736;50.462;4.850;2023-05-07T11:21:39;8.50;;;5.40;;
76039;SDS011;64736;50.462;4.850;2023-05-07T11:24:09;6.60;;;4.25;;
76039;SDS011;64736;50.462;4.850;2023-05-07T11:26:48;8.07;;;4.90;;
76039;SDS011;64736;50.462;4.850;2023-05-07T11:31:48;8.40;;;5.43;;
76039;SDS011;64736;50.462;4.850;2023-05-07T11:34:20;10.77;;;6.15;;
76039;SDS011;64736;50.462;4.850;2023-05-07T11:36:47;7.75;;;5.97;;
76039;SDS011;64736;50.462;4.850;2023-05-07T11:39:27;10.70;;;6.75;;
76039;SDS011;64736;50.462;4.850;2023-05-07T11:41:53;7.68;;;5.88;;
76039;SDS011;64736;50.462;4.850;2023-05-07T11:44:18;8.45;;;5.80;;
76039;SDS011;64736;50.462;4.850;2023-05-07T11:46:44;10.35;;;6.30;;
76039;SDS011;64736;50.462;4.850;2023-05-07T11:49:10;9.43;;;6.68;;
76039;SDS011;64736;50.462;4.850;2023-05-07T11:51:36;9.10;;;6.70;;
76039;SDS011;64736;50.462;4.850;2023-05-07T11:54:05;9.23;;;7.22;;
76039;SDS011;64736;50.462;4.850;2023-05-07T11:56:34;8.93;;;6.90;;
76039;SDS011;64736;50.462;4.850;2023-05-07T11:59:04;8.27;;;6.70;;
76039;SDS011;64736;50.462;4.850;2023-05-07T12:01:29;8.88;;;5.38;;
76039;SDS011;64736;50.462;4.850;2023-05-07T12:03:55;8.82;;;5.68;;
76039;SDS011;64736;50.462;4.850;2023-05-07T12:06:21;6.82;;;4.57;;
76039;SDS011;64736;50.462;4.850;2023-05-07T12:08:47;6.55;;;3.63;;
76039;SDS011;64736;50.462;4.850;2023-05-07T12:11:14;7.65;;;4.40;;
76039;SDS011;64736;50.462;4.850;2023-05-07T12:13:50;7.57;;;4.05;;
76039;SDS011;64736;50.462;4.850;2023-05-07T12:16:16;5.35;;;2.80;;
76039;SDS011;64736;50.462;4.850;2023-05-07T12:18:43;4.43;;;2.20;;
76039;SDS011;64736;50.462;4.850;2023-05-07T12:21:09;4.60;;;1.90;;
76039;SDS011;64736;50.462;4.850;2023-05-07T12:23:36;4.50;;;2.38;;
76039;SDS011;64736;50.462;4.850;2023-05-07T12:26:02;4.45;;;2.20;;
76039;SDS011;64736;50.462;4.850;2023-05-07T12:28:29;5.07;;;2.35;;
76039;SDS011;64736;50.462;4.850;2023-05-07T12:30:55;4.35;;;2.10;;
76039;SDS011;64736;50.462;4.850;2023-05-07T12:33:25;6.00;;;2.50;;
76039;SDS011;64736;50.462;4.850;2023-05-07T12:35:53;7.20;;;3.45;;
76039;SDS011;64736;50.462;4.850;2023-05-07T12:38:20;5.10;;;2.97;;
76039;SDS011;64736;50.462;4.850;2023-05-07T12:40:47;6.38;;;4.53;;
76039;SDS011;64736;50.462;4.850;2023-05-07T12:43:16;6.70;;;4.40;;
76039;SDS011;64736;50.462;4.850;2023-05-07T12:45:42;9.73;;;4.05;;
76039;SDS011;64736;50.462;4.850;2023-05-07T12:48:09;7.97;;;3.53;;
76039;SDS011;64736;50.462;4.850;2023-05-07T12:50:36;6.13;;;3.50;;
76039;SDS011;64736;50.462;4.850;2023-05-07T12:53:05;6.35;;;3.70;;
76039;SDS011;64736;50.462;4.850;2023-05-07T12:55:54;6.55;;;3.70;;
76039;SDS011;64736;50.462;4.850;2023-05-07T12:58:22;5.65;;;3.30;;
76039;SDS011;64736;50.462;4.850;2023-05-07T13:00:53;5.28;;;2.90;;
76039;SDS011;64736;50.462;4.850;2023-05-07T13:03:30;5.53;;;2.90;;
76039;SDS011;64736;50.462;4.850;2023-05-07T13:06:02;5.20;;;3.10;;
76039;SDS011;64736;50.462;4.850;2023-05-07T13:08:33;6.47;;;3.42;;
76039;SDS011;64736;50.462;4.850;2023-05-07T13:11:02;6.85;;;3.58;;
76039;SDS011;64736;50.462;4.850;2023-05-07T13:13:30;5.68;;;3.72;;
76039;SDS011;64736;50.462;4.850;2023-05-07T13:15:56;5.28;;;3.20;;
76039;SDS011;64736;50.462;4.850;2023-05-07T13:18:24;5.15;;;3.03;;
76039;SDS011;64736;50.462;4.850;2023-05-07T13:23:17;7.95;;;3.80;;
76039;SDS011;64736;50.462;4.850;2023-05-07T13:25:43;6.50;;;3.45;;
76039;SDS011;64736;50.462;4.850;2023-05-07T13:28:09;6.30;;;3.25;;
76039;SDS011;64736;50.462;4.850;2023-05-07T13:30:34;6.50;;;3.90;;
76039;SDS011;64736;50.462;4.850;2023-05-07T13:33:00;6.70;;;3.92;;
76039;SDS011;64736;50.462;4.850;2023-05-07T13:35:26;5.63;;;3.53;;
76039;SDS011;64736;50.462;4.850;2023-05-07T13:37:53;6.15;;;3.53;;
76039;SDS011;64736;50.462;4.850;2023-05-07T13:40:20;6.78;;;3.65;;
76039;SDS011;64736;50.462;4.850;2023-05-07T13:42:47;6.00;;;3.45;;
76039;SDS011;64736;50.462;4.850;2023-05-07T13:45:13;6.78;;;3.67;;
76039;SDS011;64736;50.462;4.850;2023-05-07T13:47:40;6.50;;;4.15;;
76039;SDS011;64736;50.462;4.850;2023-05-07T13:50:07;7.15;;;4.22;;
76039;SDS011;64736;50.462;4.850;2023-05-07T13:52:34;6.97;;;4.47;;
76039;SDS011;64736;50.462;4.850;2023-05-07T13:55:00;6.13;;;4.30;;
76039;SDS011;64736;50.462;4.850;2023-05-07T13:57:25;8.40;;;4.68;;
76039;SDS011;64736;50.462;4.850;2023-05-07T13:59:51;7.50;;;4.70;;
76039;SDS011;64736;50.462;4.850;2023-05-07T14:02:17;7.95;;;5.38;;
76039;SDS011;64736;50.462;4.850;2023-05-07T14:04:43;7.40;;;5.03;;
76039;SDS011;64736;50.462;4.850;2023-05-07T14:07:09;7.43;;;5.28;;
76039;SDS011;64736;50.462;4.850;2023-05-07T14:09:35;8.63;;;5.15;;
76039;SDS011;64736;50.462;4.850;2023-05-07T14:12:01;8.13;;;5.30;;
76039;SDS011;64736;50.462;4.850;2023-05-07T14:14:27;9.25;;;5.70;;
76039;SDS011;64736;50.462;4.850;2023-05-07T14:16:52;8.75;;;4.10;;
76039;SDS011;64736;50.462;4.850;2023-05-07T14:19:18;6.18;;;4.22;;
76039;SDS011;64736;50.462;4.850;2023-05-07T14:21:44;7.18;;;4.10;;
76039;SDS011;64736;50.462;4.850;2023-05-07T14:24:10;7.65;;;3.85;;
76039;SDS011;64736;50.462;4.850;2023-05-07T14:26:35;6.53;;;4.07;;
76039;SDS011;64736;50.462;4.850;2023-05-07T14:29:02;7.88;;;4.30;;
76039;SDS011;64736;50.462;4.850;2023-05-07T14:31:28;5.55;;;3.50;;
76039;SDS011;64736;50.462;4.850;2023-05-07T14:33:54;4.10;;;2.33;;
76039;SDS011;64736;50.462;4.850;2023-05-07T14:36:20;4.63;;;2.30;;
76039;SDS011;64736;50.462;4.850;2023-05-07T14:38:46;6.10;;;2.83;;
76039;SDS011;64736;50.462;4.850;2023-05-07T14:41:12;7.10;;;2.60;;
76039;SDS011;64736;50.462;4.850;2023-05-07T14:43:38;6.07;;;3.05;;
76039;SDS011;64736;50.462;4.850;2023-05-07T14:46:04;5.05;;;3.00;;
76039;SDS011;64736;50.462;4.850;2023-05-07T14:48:29;6.38;;;3.80;;
76039;SDS011;64736;50.462;4.850;2023-05-07T14:50:55;5.22;;;3.10;;
76039;SDS011;64736;50.462;4.850;2023-05-07T14:53:21;5.07;;;2.95;;
76039;SDS011;64736;50.462;4.850;2023-05-07T14:55:48;4.55;;;2.35;;
76039;SDS011;64736;50.462;4.850;2023-05-07T14:58:14;5.15;;;2.90;;
76039;SDS011;64736;50.462;4.850;2023-05-07T15:00:40;5.85;;;3.08;;
76039;SDS011;64736;50.462;4.850;2023-05-07T15:03:07;5.35;;;2.90;;
76039;SDS011;64736;50.462;4.850;2023-05-07T15:05:34;5.22;;;2.53;;